createdAt,value
2018-08-08T00:00:42.884Z,100067.89
2018-08-08T00:03:08.869Z,100064.28
2018-08-08T00:05:34.819Z,100064.52
2018-08-08T00:08:00.811Z,100060.19
2018-08-08T00:10:26.760Z,100052.91
2018-08-08T00:12:52.762Z,100050.56
2018-08-08T00:15:18.723Z,100058.55
2018-08-08T00:17:44.708Z,100055.89
2018-08-08T00:20:10.668Z,100066.55
2018-08-08T00:22:36.730Z,100063.38
2018-08-08T00:25:02.994Z,100062.56
2018-08-08T00:27:28.997Z,100070.33
2018-08-08T00:29:54.977Z,100077.84
2018-08-08T00:32:20.950Z,100078.23
2018-08-08T00:34:47.067Z,100069.62
2018-08-08T00:37:13.059Z,100071.57
2018-08-08T00:39:39.015Z,100078.86
2018-08-08T00:42:04.982Z,100088.09
2018-08-08T00:44:30.919Z,100088.37
2018-08-08T00:46:56.900Z,100088.19
2018-08-08T00:49:22.888Z,100089.31
2018-08-08T00:51:48.855Z,100082.23
2018-08-08T00:54:14.907Z,100081.12
2018-08-08T00:56:40.894Z,100077.22
2018-08-08T00:59:06.865Z,100078.03
2018-08-08T01:01:32.825Z,100080.89
2018-08-08T01:03:58.799Z,100092.50
2018-08-08T01:06:24.764Z,100087.56
2018-08-08T01:08:50.825Z,100121.30
2018-08-08T01:11:16.719Z,100279.02
2018-08-08T01:13:42.780Z,100248.03
2018-08-08T01:16:08.854Z,100251.48
2018-08-08T01:18:34.823Z,100261.31
2018-08-08T01:21:00.784Z,100252.63
2018-08-08T01:23:26.727Z,100259.74
2018-08-08T01:25:52.699Z,100263.11
2018-08-08T01:28:18.707Z,100251.74
2018-08-08T01:30:44.663Z,100238.18
2018-08-08T01:33:10.654Z,100233.25
2018-08-08T01:35:36.619Z,100227.29
2018-08-08T01:38:02.588Z,100225.30
2018-08-08T01:40:28.567Z,100234.16
2018-08-08T01:42:54.544Z,100232.39
2018-08-08T01:45:20.536Z,100238.80
2018-08-08T01:47:46.504Z,100243.83
2018-08-08T01:50:12.508Z,100243.81
2018-08-08T01:52:38.486Z,100240.95
2018-08-08T01:55:04.474Z,100241.06
2018-08-08T01:57:30.424Z,100248.73
2018-08-08T01:59:56.499Z,100252.63
2018-08-08T02:02:22.464Z,100255.62
2018-08-08T02:04:48.428Z,100257.16
2018-08-08T02:07:14.408Z,100247.37
2018-08-08T02:09:40.363Z,100231.35
2018-08-08T02:12:06.339Z,100212.78
2018-08-08T02:14:32.543Z,100213.30
2018-08-08T02:16:58.563Z,100215.98
2018-08-08T02:19:24.524Z,100199.67
2018-08-08T02:21:50.490Z,100179.45
2018-08-08T02:24:16.460Z,100155.55
2018-08-08T02:26:42.440Z,100142.02
2018-08-08T02:29:08.392Z,100168.89
2018-08-08T02:31:34.447Z,100185.70
2018-08-08T02:34:00.423Z,100168.69
2018-08-08T02:36:26.384Z,100168.69
2018-08-08T02:38:52.391Z,100150.31
2018-08-08T02:41:18.356Z,100145.31
2018-08-08T02:43:44.332Z,100118.03
2018-08-08T02:46:10.283Z,100132.91
2018-08-08T02:48:36.239Z,100129.31
2018-08-08T02:51:02.213Z,100123.56
2018-08-08T02:53:28.189Z,100128.27
2018-08-08T02:55:54.148Z,100148.80
2018-08-08T02:58:20.114Z,100152.68
2018-08-08T03:00:46.076Z,100162.30
2018-08-08T03:03:12.035Z,100165.71
2018-08-08T03:05:37.996Z,100167.25
2018-08-08T03:08:04.020Z,100168.48
2018-08-08T03:10:29.975Z,100158.63
2018-08-08T03:12:55.944Z,100148.97
2018-08-08T03:15:21.907Z,100179.25
2018-08-08T03:17:47.899Z,100175.45
2018-08-08T03:20:14.124Z,100176.25
2018-08-08T03:22:40.076Z,100177.20
2018-08-08T03:25:06.080Z,100169.20
2018-08-08T03:27:32.051Z,100195.04
2018-08-08T03:29:58.052Z,100201.70
2018-08-08T03:32:24.049Z,100206.52
2018-08-08T03:34:50.041Z,100212.06
2018-08-08T03:37:15.988Z,100226.13
2018-08-08T03:39:41.975Z,100237.02
2018-08-08T03:42:07.940Z,100241.93
2018-08-08T03:44:33.909Z,100292.62
2018-08-08T03:46:59.883Z,100321.38
2018-08-08T03:49:25.860Z,100352.80
2018-08-08T03:51:51.843Z,100372.99
2018-08-08T03:54:17.795Z,100396.63
2018-08-08T03:56:43.835Z,100425.86
2018-08-08T03:59:09.860Z,100443.31
2018-08-08T04:01:35.849Z,100445.16
2018-08-08T04:04:01.819Z,100451.51
2018-08-08T04:06:27.861Z,100462.77
2018-08-08T04:08:53.816Z,100463.88
2018-08-08T04:11:19.788Z,100468.03
2018-08-08T04:13:45.771Z,100496.27
2018-08-08T04:16:11.728Z,100498.60
2018-08-08T04:18:37.791Z,100508.05
2018-08-08T04:21:03.770Z,100519.53
2018-08-08T04:23:29.728Z,100535.41
2018-08-08T04:25:55.707Z,100571.13
2018-08-08T04:28:21.659Z,100585.16
2018-08-08T04:30:47.642Z,100585.52
2018-08-08T04:33:13.600Z,100598.16
2018-08-08T04:35:39.569Z,100607.47
2018-08-08T04:38:05.539Z,100636.19
2018-08-08T04:40:31.508Z,100644.47
2018-08-08T04:42:57.473Z,100659.89
2018-08-08T04:45:23.441Z,100673.74
2018-08-08T04:47:49.430Z,100670.25
2018-08-08T04:50:15.376Z,100663.80
2018-08-08T04:52:41.380Z,100669.00
2018-08-08T04:55:07.352Z,100643.13
2018-08-08T04:57:33.328Z,100643.80
2018-08-08T04:59:59.309Z,100644.10
2018-08-08T05:02:25.272Z,100634.16
2018-08-08T05:04:51.269Z,100628.55
2018-08-08T05:07:17.223Z,100617.70
2018-08-08T05:09:43.333Z,100609.58
2018-08-08T05:12:09.306Z,100606.79
2018-08-08T05:14:35.305Z,100600.25
2018-08-08T05:17:01.317Z,100586.80
2018-08-08T05:19:27.299Z,100555.63
2018-08-08T05:21:53.253Z,100517.25
2018-08-08T05:24:19.245Z,100479.36
2018-08-08T05:26:45.188Z,100446.51
2018-08-08T05:29:11.170Z,100442.33
2018-08-08T05:31:37.139Z,100451.72
2018-08-08T05:34:03.125Z,100444.78
2018-08-08T05:36:29.111Z,100457.17
2018-08-08T05:38:55.064Z,100467.02
2018-08-08T05:41:21.060Z,100467.95
2018-08-08T05:43:47.846Z,100461.56
2018-08-08T05:46:13.832Z,100462.22
2018-08-08T05:48:39.787Z,100455.77
2018-08-08T05:51:05.792Z,100453.29
2018-08-08T05:53:31.779Z,100472.22
2018-08-08T05:55:57.772Z,100474.73
2018-08-08T05:58:23.832Z,100477.67
2018-08-08T06:00:49.796Z,100475.88
2018-08-08T06:03:15.741Z,100475.13
2018-08-08T06:05:41.725Z,100467.17
2018-08-08T06:08:07.777Z,100460.42
2018-08-08T06:10:33.711Z,100463.20
2018-08-08T06:12:59.738Z,100467.02
2018-08-08T06:15:25.759Z,100459.30
2018-08-08T06:17:51.778Z,100454.27
2018-08-08T06:20:17.831Z,100453.64
2018-08-08T06:22:43.840Z,100438.74
2018-08-08T06:25:09.864Z,100430.16
2018-08-08T06:27:35.926Z,100410.97
2018-08-08T06:30:01.899Z,100401.23
2018-08-08T06:32:27.960Z,100398.34
2018-08-08T06:34:53.994Z,100394.97
2018-08-08T06:37:19.963Z,100394.86
2018-08-08T06:39:45.920Z,100389.75
2018-08-08T06:42:11.894Z,100395.05
2018-08-08T06:44:37.844Z,100396.79
2018-08-08T06:47:03.839Z,100409.00
2018-08-08T06:49:29.857Z,100416.90
2018-08-08T06:51:56.822Z,100415.27
2018-08-08T06:54:22.793Z,100422.56
2018-08-08T06:56:48.802Z,100428.30
2018-08-08T06:59:14.987Z,100424.66
2018-08-08T07:01:40.972Z,100440.28
2018-08-08T07:04:06.937Z,100452.41
2018-08-08T07:06:32.888Z,100458.04
2018-08-08T07:08:58.831Z,100463.25
2018-08-08T07:11:24.798Z,100468.81
2018-08-08T07:13:50.837Z,100475.81
2018-08-08T07:16:16.805Z,100477.52
2018-08-08T07:18:42.767Z,100480.16
2018-08-08T07:21:08.743Z,100478.22
2018-08-08T07:23:34.695Z,100478.55
2018-08-08T07:26:00.688Z,100477.22
2018-08-08T07:28:26.652Z,100473.92
2018-08-08T07:30:52.640Z,100463.37
2018-08-08T07:33:18.599Z,100453.17
2018-08-08T07:35:44.577Z,100451.44
2018-08-08T07:38:10.665Z,100444.99
2018-08-08T07:40:36.669Z,100438.91
2018-08-08T07:43:02.608Z,100444.06
2018-08-08T07:45:28.692Z,100442.60
2018-08-08T07:47:54.731Z,100439.53
2018-08-08T07:50:20.711Z,100440.08
2018-08-08T07:52:46.703Z,100444.94
2018-08-08T07:55:12.661Z,100456.42
2018-08-08T07:57:38.639Z,100459.60
2018-08-08T08:00:04.662Z,100455.94
2018-08-08T08:02:30.626Z,100455.70
2018-08-08T08:04:57.304Z,100464.16
2018-08-08T08:07:23.346Z,100479.92
2018-08-08T08:09:49.299Z,100468.80
2018-08-08T08:12:15.276Z,100470.73
2018-08-08T08:14:41.288Z,100476.28
2018-08-08T08:17:07.297Z,100475.34
2018-08-08T08:19:33.311Z,100483.64
2018-08-08T08:21:59.277Z,100488.06
2018-08-08T08:24:25.495Z,100492.16
2018-08-08T08:26:51.479Z,100501.84
2018-08-08T08:29:17.459Z,100507.41
2018-08-08T08:31:43.425Z,100511.81
2018-08-08T08:34:09.416Z,100520.58
2018-08-08T08:36:35.386Z,100522.31
2018-08-08T08:39:01.370Z,100529.40
2018-08-08T08:41:27.319Z,100537.50
2018-08-08T08:43:53.299Z,100543.02
2018-08-08T08:46:19.315Z,100546.85
2018-08-08T08:48:45.269Z,100558.09
2018-08-08T08:51:11.245Z,100558.44
2018-08-08T08:53:37.272Z,100566.63
2018-08-08T08:56:03.261Z,100562.60
2018-08-08T08:58:29.230Z,100569.45
2018-08-08T09:00:55.186Z,100583.08
2018-08-08T09:03:21.159Z,100577.08
2018-08-08T09:05:47.119Z,100578.95
2018-08-08T09:08:13.201Z,100581.93
2018-08-08T09:10:39.232Z,100585.41
2018-08-08T09:13:05.218Z,100592.27
2018-08-08T09:15:31.219Z,100590.13
2018-08-08T09:17:57.301Z,100606.66
2018-08-08T09:20:23.369Z,100602.93
2018-08-08T09:22:49.331Z,100617.27
2018-08-08T09:25:15.292Z,100618.20
2018-08-08T09:27:41.267Z,100620.34
2018-08-08T09:30:07.242Z,100620.33
2018-08-08T09:32:33.224Z,100621.56
2018-08-08T09:34:59.269Z,100622.08
2018-08-08T09:37:25.247Z,100630.94
2018-08-08T09:39:51.284Z,100643.98
2018-08-08T09:42:17.290Z,100642.98
2018-08-08T09:44:43.255Z,100639.55
2018-08-08T09:47:09.203Z,100649.06
2018-08-08T09:49:35.226Z,100650.52
2018-08-08T09:52:01.184Z,100652.58
2018-08-08T09:54:27.141Z,100660.66
2018-08-08T09:56:53.112Z,100657.40
2018-08-08T09:59:19.103Z,100654.28
2018-08-08T10:01:45.104Z,100661.56
2018-08-08T10:04:11.081Z,100657.81
2018-08-08T10:06:37.052Z,100663.23
2018-08-08T10:09:03.013Z,100662.64
2018-08-08T10:11:28.988Z,100664.37
2018-08-08T10:13:54.954Z,100671.23
2018-08-08T10:16:20.917Z,100670.13
2018-08-08T10:18:46.912Z,100669.43
2018-08-08T10:21:12.931Z,100680.56
2018-08-08T10:23:39.436Z,100681.95
2018-08-08T10:26:05.436Z,100678.59
2018-08-08T10:28:31.419Z,100680.20
2018-08-08T10:30:57.395Z,100695.66
2018-08-08T10:33:23.364Z,100690.02
2018-08-08T10:35:49.348Z,100681.33
2018-08-08T10:38:15.307Z,100686.48
2018-08-08T10:40:41.282Z,100693.16
2018-08-08T10:43:07.244Z,100701.57
2018-08-08T10:45:33.225Z,100702.14
2018-08-08T10:47:59.186Z,100700.82
2018-08-08T10:50:25.148Z,100699.84
2018-08-08T10:52:51.136Z,100701.00
2018-08-08T10:55:17.107Z,100697.28
2018-08-08T10:57:43.142Z,100698.69
2018-08-08T11:00:09.087Z,100695.76
2018-08-08T11:02:35.072Z,100699.88
2018-08-08T11:05:01.120Z,100707.03
2018-08-08T11:07:27.119Z,100722.83
2018-08-08T11:09:53.145Z,100709.30
2018-08-08T11:12:19.177Z,100707.21
2018-08-08T11:14:45.201Z,100710.74
2018-08-08T11:17:11.219Z,100715.03
2018-08-08T11:19:37.217Z,100717.00
2018-08-08T11:22:03.173Z,100724.16
2018-08-08T11:24:29.204Z,100733.62
2018-08-08T11:26:55.253Z,100728.57
2018-08-08T11:29:21.248Z,100733.38
2018-08-08T11:31:47.224Z,100730.53
2018-08-08T11:34:13.261Z,100731.92
2018-08-08T11:36:40.267Z,100736.50
2018-08-08T11:39:06.239Z,100733.45
2018-08-08T11:41:32.206Z,100737.50
2018-08-08T11:43:58.268Z,100740.03
2018-08-08T11:46:24.223Z,100738.72
2018-08-08T11:48:50.192Z,100751.32
2018-08-08T11:51:16.200Z,100754.55
2018-08-08T11:53:42.148Z,100752.41
2018-08-08T11:56:08.131Z,100753.09
2018-08-08T11:58:34.132Z,100763.31
2018-08-08T12:01:00.157Z,100758.28
2018-08-08T12:03:26.133Z,100761.28
2018-08-08T12:05:52.091Z,100765.83
2018-08-08T12:08:18.273Z,100772.20
2018-08-08T12:10:44.230Z,100775.58
2018-08-08T12:13:10.209Z,100776.94
2018-08-08T12:15:36.239Z,100772.05
2018-08-08T12:18:02.216Z,100771.44
2018-08-08T12:20:28.294Z,100778.40
2018-08-08T12:22:54.283Z,100781.00
2018-08-08T12:25:20.362Z,100777.98
2018-08-08T12:27:46.383Z,100781.67
2018-08-08T12:30:12.415Z,100786.23
2018-08-08T12:32:38.394Z,100792.91
2018-08-08T12:35:04.378Z,100781.27
2018-08-08T12:37:30.362Z,100783.06
2018-08-08T12:39:56.336Z,100786.97
2018-08-08T12:42:22.325Z,100794.36
2018-08-08T12:44:48.495Z,100798.43
2018-08-08T12:47:14.494Z,100795.88
2018-08-08T12:49:40.459Z,100794.55
2018-08-08T12:52:06.444Z,100792.97
2018-08-08T12:54:32.425Z,100791.95
2018-08-08T12:56:58.402Z,100800.21
2018-08-08T12:59:24.449Z,100797.16
2018-08-08T13:01:50.400Z,100799.50
2018-08-08T13:04:16.382Z,100792.95
2018-08-08T13:06:42.413Z,100791.02
2018-08-08T13:09:08.468Z,100796.30
2018-08-08T13:11:34.429Z,100799.18
2018-08-08T13:14:00.634Z,100795.86
2018-08-08T13:16:26.468Z,100795.98
2018-08-08T13:18:52.684Z,100792.01
2018-08-08T13:21:18.677Z,100790.49
2018-08-08T13:23:44.779Z,100798.92
2018-08-08T13:26:10.728Z,100786.91
2018-08-08T13:28:36.822Z,100798.27
2018-08-08T13:31:02.739Z,100794.84
2018-08-08T13:33:28.801Z,100806.62
2018-08-08T13:35:54.873Z,100807.20
2018-08-08T13:38:20.897Z,100800.55
2018-08-08T13:40:46.857Z,100797.67
2018-08-08T13:43:12.828Z,100806.12
2018-08-08T13:45:38.916Z,100806.19
2018-08-08T13:48:04.837Z,100812.97
2018-08-08T13:50:30.835Z,100820.86
2018-08-08T13:52:56.808Z,100818.42
2018-08-08T13:55:22.767Z,100820.97
2018-08-08T13:57:48.749Z,100827.27
2018-08-08T14:00:14.718Z,100823.64
2018-08-08T14:02:40.675Z,100830.76
2018-08-08T14:05:06.652Z,100832.30
2018-08-08T14:07:32.616Z,100833.50
2018-08-08T14:09:58.581Z,100827.59
2018-08-08T14:12:24.558Z,100830.10
2018-08-08T14:14:50.624Z,100826.77
2018-08-08T14:17:16.582Z,100822.23
2018-08-08T14:19:42.577Z,100832.68
2018-08-08T14:22:08.560Z,100831.59
2018-08-08T14:24:34.521Z,100836.03
2018-08-08T14:27:00.632Z,100829.77
2018-08-08T14:29:26.600Z,100834.19
2018-08-08T14:31:52.569Z,100833.08
2018-08-08T14:34:18.564Z,100834.08
2018-08-08T14:36:44.548Z,100833.11
2018-08-08T14:39:10.507Z,100839.41
2018-08-08T14:41:36.492Z,100842.12
2018-08-08T14:44:02.455Z,100841.47
2018-08-08T14:46:28.436Z,100836.44
2018-08-08T14:48:54.396Z,100844.41
2018-08-08T14:51:20.374Z,100849.03
2018-08-08T14:53:46.401Z,100852.24
2018-08-08T14:56:12.379Z,100844.69
2018-08-08T14:58:38.345Z,100857.11
2018-08-08T15:01:04.346Z,100856.82
2018-08-08T15:03:30.282Z,100860.17
2018-08-08T15:05:56.305Z,100853.85
2018-08-08T15:08:22.276Z,100858.38
2018-08-08T15:10:48.261Z,100856.63
2018-08-08T15:13:14.247Z,100860.57
2018-08-08T15:15:40.229Z,100864.31
2018-08-08T15:18:06.191Z,100862.70
2018-08-08T15:20:32.153Z,100869.86
2018-08-08T15:22:58.131Z,100865.53
2018-08-08T15:25:24.078Z,100863.93
2018-08-08T15:27:50.164Z,100864.95
2018-08-08T15:30:16.211Z,100859.88
2018-08-08T15:32:42.196Z,100859.91
2018-08-08T15:35:08.205Z,100855.98
2018-08-08T15:37:34.567Z,100861.38
2018-08-08T15:40:00.182Z,100862.71
2018-08-08T15:42:26.131Z,100863.28
2018-08-08T15:44:52.099Z,100868.31
2018-08-08T15:47:18.090Z,100866.02
2018-08-08T15:49:44.076Z,100864.40
2018-08-08T15:52:10.020Z,100870.73
2018-08-08T15:54:36.001Z,100860.61
2018-08-08T15:57:01.953Z,100865.06
2018-08-08T15:59:27.929Z,100867.28
2018-08-08T16:01:53.889Z,100865.29
2018-08-08T16:04:19.855Z,100864.27
2018-08-08T16:06:45.861Z,100865.94
2018-08-08T16:09:11.831Z,100865.39
2018-08-08T16:11:37.800Z,100861.21
2018-08-08T16:14:03.791Z,100867.28
2018-08-08T16:16:29.764Z,100865.73
2018-08-08T16:18:55.718Z,100862.76
2018-08-08T16:21:21.703Z,100871.56
2018-08-08T16:23:47.667Z,100861.75
2018-08-08T16:26:13.676Z,100859.83
2018-08-08T16:28:39.607Z,100865.64
2018-08-08T16:31:05.731Z,100863.19
2018-08-08T16:33:31.679Z,100857.89
2018-08-08T16:35:57.637Z,100857.00
2018-08-08T16:38:23.620Z,100858.31
2018-08-08T16:40:49.644Z,100861.12
2018-08-08T16:43:15.646Z,100855.84
2018-08-08T16:45:41.612Z,100851.00
2018-08-08T16:48:07.592Z,100851.45
2018-08-08T16:50:33.660Z,100851.14
2018-08-08T16:52:59.641Z,100850.63
2018-08-08T16:55:25.620Z,100854.24
2018-08-08T16:57:51.590Z,100853.41
2018-08-08T17:00:17.576Z,100852.94
2018-08-08T17:02:43.537Z,100851.91
2018-08-08T17:05:09.523Z,100847.70
2018-08-08T17:07:35.494Z,100848.90
2018-08-08T17:10:01.459Z,100852.19
2018-08-08T17:12:27.436Z,100844.47
2018-08-08T17:14:53.418Z,100849.38
2018-08-08T17:17:19.403Z,100853.03
2018-08-08T17:19:45.396Z,100844.20
2018-08-08T17:22:11.380Z,100843.45
2018-08-08T17:24:37.344Z,100845.07
2018-08-08T17:27:03.327Z,100838.10
2018-08-08T17:29:29.297Z,100841.72
2018-08-08T17:31:55.303Z,100842.16
2018-08-08T17:34:21.267Z,100841.12
2018-08-08T17:36:47.233Z,100846.76
2018-08-08T17:39:13.204Z,100839.44
2018-08-08T17:41:39.169Z,100843.31
2018-08-08T17:44:05.326Z,100846.06
2018-08-08T17:46:31.301Z,100844.60
2018-08-08T17:48:57.275Z,100850.41
2018-08-08T17:51:23.257Z,100857.52
2018-08-08T17:53:49.203Z,100850.49
2018-08-08T17:56:15.168Z,100854.88
2018-08-08T17:58:41.176Z,100855.48
2018-08-08T18:01:07.148Z,100851.87
2018-08-08T18:03:33.128Z,100855.48
2018-08-08T18:05:59.105Z,100856.34
2018-08-08T18:08:25.065Z,100857.20
2018-08-08T18:10:51.036Z,100864.69
2018-08-08T18:13:17.014Z,100862.53
2018-08-08T18:15:43.088Z,100868.42
2018-08-08T18:18:08.983Z,100866.91
2018-08-08T18:20:34.968Z,100873.20
2018-08-08T18:23:00.963Z,100882.49
2018-08-08T18:25:27.015Z,100886.87
2018-08-08T18:27:52.985Z,100892.42
2018-08-08T18:30:19.003Z,100891.94
2018-08-08T18:32:44.976Z,100898.73
2018-08-08T18:35:10.931Z,100898.09
2018-08-08T18:37:36.987Z,100890.13
2018-08-08T18:40:02.996Z,100897.48
2018-08-08T18:42:28.943Z,100898.26
2018-08-08T18:44:54.924Z,100909.74
2018-08-08T18:47:20.928Z,100908.28
2018-08-08T18:49:46.920Z,100915.21
2018-08-08T18:52:12.919Z,100919.55
2018-08-08T18:54:38.885Z,100917.88
2018-08-08T18:57:04.849Z,100917.19
2018-08-08T18:59:30.859Z,100919.73
2018-08-08T19:01:56.816Z,100924.55
2018-08-08T19:04:22.780Z,100930.86
2018-08-08T19:06:48.795Z,100929.88
2018-08-08T19:09:14.821Z,100936.67
2018-08-08T19:11:40.769Z,100940.88
2018-08-08T19:14:06.740Z,100938.90
2018-08-08T19:16:32.742Z,100939.41
2018-08-08T19:18:58.730Z,100948.09
2018-08-08T19:21:24.719Z,100947.92
2018-08-08T19:23:50.724Z,100948.54
2018-08-08T19:26:16.691Z,100952.91
2018-08-08T19:28:42.667Z,100955.62
2018-08-08T19:31:08.627Z,100955.30
2018-08-08T19:33:34.610Z,100965.29
2018-08-08T19:36:00.564Z,100971.78
2018-08-08T19:38:26.549Z,100969.95
2018-08-08T19:40:52.528Z,100966.16
2018-08-08T19:43:18.559Z,100973.96
2018-08-08T19:45:44.561Z,100981.58
2018-08-08T19:48:10.615Z,100984.81
2018-08-08T19:50:36.589Z,100977.06
2018-08-08T19:53:02.575Z,100993.67
2018-08-08T19:55:28.529Z,100999.15
2018-08-08T19:57:54.609Z,101003.91
2018-08-08T20:00:20.639Z,101006.67
2018-08-08T20:02:46.653Z,101007.65
2018-08-08T20:05:12.696Z,101000.58
2018-08-08T20:07:38.662Z,101008.62
2018-08-08T20:10:04.652Z,101001.31
2018-08-08T20:12:30.598Z,101014.89
2018-08-08T20:14:56.578Z,101017.91
2018-08-08T20:17:22.545Z,101020.64
2018-08-08T20:19:48.561Z,101014.52
2018-08-08T20:22:14.596Z,101021.19
2018-08-08T20:24:40.559Z,101021.05
2018-08-08T20:27:06.527Z,101024.73
2018-08-08T20:29:32.525Z,101021.19
2018-08-08T20:31:58.518Z,101013.70
2018-08-08T20:34:24.468Z,101015.41
2018-08-08T20:36:50.431Z,101021.15
2018-08-08T20:39:16.527Z,101017.73
2018-08-08T20:41:42.601Z,101021.72
2018-08-08T20:44:08.654Z,101022.48
2018-08-08T20:46:34.628Z,101020.73
2018-08-08T20:49:00.713Z,101019.00
2018-08-08T20:51:26.713Z,101007.44
2018-08-08T20:53:52.770Z,101013.25
2018-08-08T20:56:18.769Z,101017.38
2018-08-08T20:58:44.808Z,101018.25
2018-08-08T21:01:10.814Z,101016.98
2018-08-08T21:03:36.787Z,101013.11
2018-08-08T21:06:02.766Z,101011.34
2018-08-08T21:08:28.734Z,101015.84
2018-08-08T21:10:54.711Z,101013.83
2018-08-08T21:13:20.711Z,101015.40
2018-08-08T21:15:46.673Z,101011.80
2018-08-08T21:18:12.650Z,101020.77
2018-08-08T21:20:38.624Z,101023.70
2018-08-08T21:23:04.691Z,101012.93
2018-08-08T21:25:30.704Z,101018.64
2018-08-08T21:27:56.748Z,101021.44
2018-08-08T21:30:22.922Z,101024.06
2018-08-08T21:32:48.804Z,101022.58
2018-08-08T21:35:14.803Z,101027.73
2018-08-08T21:37:40.791Z,101028.64
2018-08-08T21:40:06.776Z,101023.58
2018-08-08T21:42:32.743Z,101029.44
2018-08-08T21:44:58.758Z,101029.06
2018-08-08T21:47:24.700Z,101027.02
2018-08-08T21:49:50.679Z,101027.05
2018-08-08T21:52:16.731Z,101024.84
2018-08-08T21:54:42.644Z,101023.34
2018-08-08T21:57:08.600Z,101029.63
2018-08-08T21:59:34.626Z,101025.33
2018-08-08T22:02:00.590Z,101030.58
2018-08-08T22:04:26.647Z,101026.27
2018-08-08T22:06:52.622Z,101029.98
2018-08-08T22:09:18.591Z,101024.61
2018-08-08T22:11:44.596Z,101020.75
2018-08-08T22:14:10.575Z,101018.95
2018-08-08T22:16:36.547Z,101027.55
2018-08-08T22:19:02.507Z,101029.84
2018-08-08T22:21:28.575Z,101027.92
2018-08-08T22:23:54.532Z,101027.90
2018-08-08T22:26:20.534Z,101025.19
2018-08-08T22:28:46.488Z,101026.49
2018-08-08T22:31:12.505Z,101031.00
2018-08-08T22:33:38.552Z,101028.05
2018-08-08T22:36:04.607Z,101024.66
2018-08-08T22:38:30.557Z,101027.00
2018-08-08T22:40:56.521Z,101028.65
2018-08-08T22:43:22.549Z,101031.97
2018-08-08T22:45:48.575Z,101029.16
2018-08-08T22:48:14.563Z,101028.23
2018-08-08T22:50:40.664Z,101033.98
2018-08-08T22:53:06.903Z,101029.14
2018-08-08T22:55:32.853Z,101027.61
2018-08-08T22:57:58.846Z,101022.19
2018-08-08T23:00:24.809Z,101025.23
2018-08-08T23:02:50.897Z,101027.70
2018-08-08T23:05:16.889Z,101027.63
2018-08-08T23:07:42.989Z,101030.70
2018-08-08T23:10:09.192Z,101036.20
2018-08-08T23:12:35.197Z,101036.58
2018-08-08T23:15:01.181Z,101041.34
2018-08-08T23:17:27.632Z,101043.70
2018-08-08T23:19:53.587Z,101040.20
2018-08-08T23:22:19.552Z,101035.25
2018-08-08T23:24:45.529Z,101037.46
2018-08-08T23:27:11.512Z,101034.95
2018-08-08T23:29:37.479Z,101035.38
2018-08-08T23:32:03.460Z,101027.59
2018-08-08T23:34:29.434Z,101026.58
2018-08-08T23:36:55.371Z,101032.21
2018-08-08T23:39:21.364Z,101031.89
2018-08-08T23:41:47.342Z,101031.23
2018-08-08T23:44:13.276Z,101024.73
2018-08-08T23:46:39.252Z,101022.79
2018-08-08T23:49:05.257Z,101021.08
2018-08-08T23:51:32.284Z,101017.23
2018-08-08T23:53:58.258Z,101015.77
2018-08-08T23:56:24.260Z,101012.44
2018-08-08T23:58:50.219Z,101011.93
